Time;durP1;ratioP1;P1;durP2;ratioP2;P2;SDS_P1;SDS_P2;PMS_P1;PMS_P2;Temp;Humidity;BMP_temperature;BMP_pressure;BME280_temperature;BME280_humidity;BME280_pressure;Samples;Min_cycle;Max_cycle;Signal;HPM_P1;HPM_P2
2022/08/20 00:00:19;;;;;;;11.38;7.60;;;;;;;;;;5051201;28;20017;-43
2022/08/20 00:02:49;;;;;;;17.15;8.40;;;;;;;;;;5052304;28;20025;-41
2022/08/20 00:05:20;;;;;;;14.77;7.80;;;;;;;;;;5051592;28;20069;-43
2022/08/20 00:07:45;;;;;;;16.27;7.82;;;;;;;;;;5052241;28;20385;-43
2022/08/20 00:10:13;;;;;;;14.85;7.97;;;;;;;;;;5052694;28;20035;-43
2022/08/20 00:12:43;;;;;;;14.25;7.78;;;;;;;;;;5052454;28;20104;-44
2022/08/20 00:15:11;;;;;;;14.77;7.97;;;;;;;;;;5052345;28;20025;-44
2022/08/20 00:17:37;;;;;;;22.15;8.15;;;;;;;;;;5052365;28;20496;-44
2022/08/20 00:20:08;;;;;;;12.05;7.85;;;;;;;;;;5052378;28;20025;-42
2022/08/20 00:22:34;;;;;;;19.27;8.20;;;;;;;;;;5052347;28;20048;-45
2022/08/20 00:24:59;;;;;;;22.17;8.10;;;;;;;;;;5052505;28;20029;-42
2022/08/20 00:27:25;;;;;;;13.50;7.75;;;;;;;;;;5052201;28;20021;-42
2022/08/20 00:29:50;;;;;;;21.17;7.50;;;;;;;;;;5052213;28;20032;-45
2022/08/20 00:32:16;;;;;;;21.15;8.98;;;;;;;;;;5052248;28;20025;-43
2022/08/20 00:34:41;;;;;;;15.40;8.65;;;;;;;;;;5052185;28;20514;-42
2022/08/20 00:37:07;;;;;;;12.73;8.30;;;;;;;;;;5052184;28;20084;-44
2022/08/20 00:39:33;;;;;;;17.98;8.65;;;;;;;;;;5052342;28;20033;-41
2022/08/20 00:42:01;;;;;;;15.10;8.30;;;;;;;;;;5052038;28;20055;-43
2022/08/20 00:44:27;;;;;;;18.50;9.70;;;;;;;;;;5051987;28;20017;-42
2022/08/20 00:46:53;;;;;;;20.02;10.18;;;;;;;;;;5052335;28;20063;-43
2022/08/20 00:49:23;;;;;;;23.73;10.52;;;;;;;;;;5051923;28;20017;-42
2022/08/20 00:51:49;;;;;;;;;;;;;;;;;;5052398;28;20021;-42
2022/08/20 00:54:21;;;;;;;21.73;10.80;;;;;;;;;;5051928;28;19913;-42
2022/08/20 00:56:53;;;;;;;24.58;12.20;;;;;;;;;;5051924;28;20063;-42
2022/08/20 00:59:24;;;;;;;19.40;11.50;;;;;;;;;;5052206;28;20070;-41
2022/08/20 01:01:50;;;;;;;21.42;11.90;;;;;;;;;;5052665;28;20029;-39
2022/08/20 01:04:16;;;;;;;24.27;12.18;;;;;;;;;;5021391;28;20029;-39
2022/08/20 01:06:42;;;;;;;21.80;11.70;;;;;;;;;;5055851;28;20055;-40
2022/08/20 01:09:08;;;;;;;18.33;10.65;;;;;;;;;;5055732;28;20053;-39
2022/08/20 01:11:37;;;;;;;18.05;10.75;;;;;;;;;;5055735;28;20642;-40
2022/08/20 01:14:22;;;;;;;17.00;10.70;;;;;;;;;;5055948;28;20155;-40
2022/08/20 01:16:51;;;;;;;14.98;10.02;;;;;;;;;;5055597;28;20066;-39
2022/08/20 01:19:23;;;;;;;16.73;9.57;;;;;;;;;;5055834;28;20025;-42
2022/08/20 01:21:49;;;;;;;15.18;8.70;;;;;;;;;;5055787;28;20028;-42
2022/08/20 01:24:34;;;;;;;17.80;9.02;;;;;;;;;;5055400;28;20079;-42
2022/08/20 01:27:03;;;;;;;18.38;8.95;;;;;;;;;;5055410;28;20090;-43
2022/08/20 01:29:35;;;;;;;18.42;9.43;;;;;;;;;;5055389;28;20032;-42
2022/08/20 01:32:01;;;;;;;28.13;10.57;;;;;;;;;;5055611;28;20029;-42
2022/08/20 01:34:27;;;;;;;15.23;8.80;;;;;;;;;;5055541;28;20074;-41
2022/08/20 01:36:54;;;;;;;23.27;10.45;;;;;;;;;;5055494;28;20017;-44
2022/08/20 01:39:29;;;;;;;19.58;10.30;;;;;;;;;;5055408;28;20086;-43
2022/08/20 01:41:57;;;;;;;15.18;9.98;;;;;;;;;;5054952;28;20037;-41
2022/08/20 01:44:23;;;;;;;17.10;10.88;;;;;;;;;;5055014;28;20118;-42
2022/08/20 01:46:50;;;;;;;25.55;11.77;;;;;;;;;;5055333;28;20025;-42
2022/08/20 01:49:22;;;;;;;25.02;11.02;;;;;;;;;;5054983;28;20017;-42
2022/08/20 01:51:49;;;;;;;22.25;11.90;;;;;;;;;;5055187;28;20028;-43
2022/08/20 01:54:15;;;;;;;22.50;11.82;;;;;;;;;;5055163;28;20423;-43
2022/08/20 01:57:01;;;;;;;20.73;11.20;;;;;;;;;;5037055;28;20112;-43
2022/08/20 01:59:26;;;;;;;23.10;11.25;;;;;;;;;;5055060;28;20029;-44
2022/08/20 02:01:52;;;;;;;22.02;11.10;;;;;;;;;;5054761;28;20029;-42
2022/08/20 02:04:18;;;;;;;24.52;11.60;;;;;;;;;;5054707;28;20105;-42
2022/08/20 02:06:48;;;;;;;32.42;12.20;;;;;;;;;;5054650;28;20017;-43
2022/08/20 02:09:14;;;;;;;28.02;11.95;;;;;;;;;;5054835;28;20029;-42
2022/08/20 02:11:40;;;;;;;20.15;11.98;;;;;;;;;;5054595;28;20029;-42
2022/08/20 02:14:08;;;;;;;19.48;12.18;;;;;;;;;;5053434;28;20397;-43
2022/08/20 02:16:36;;;;;;;23.98;11.23;;;;;;;;;;5054507;28;20040;-42
2022/08/20 02:19:17;;;;;;;20.02;12.02;;;;;;;;;;5054340;28;20469;-41
2022/08/20 02:21:47;;;;;;;19.20;12.20;;;;;;;;;;5054444;28;20048;-43
2022/08/20 02:24:13;;;;;;;23.60;13.50;;;;;;;;;;5054329;28;20025;-43
2022/08/20 02:26:39;;;;;;;19.80;13.27;;;;;;;;;;5054176;28;20025;-45
2022/08/20 02:29:07;;;;;;;24.40;12.73;;;;;;;;;;5054461;28;20037;-43
2022/08/20 02:31:35;;;;;;;22.33;13.25;;;;;;;;;;5054487;28;20029;-43
2022/08/20 02:34:02;;;;;;;20.52;13.57;;;;;;;;;;5054116;28;20029;-46
2022/08/20 02:36:27;;;;;;;28.17;13.75;;;;;;;;;;5054391;28;20064;-44
2022/08/20 02:38:53;;;;;;;21.85;12.43;;;;;;;;;;5054058;28;20025;-42
2022/08/20 02:41:20;;;;;;;24.15;12.50;;;;;;;;;;5054108;28;20433;-43
2022/08/20 02:43:47;;;;;;;22.73;12.27;;;;;;;;;;5053926;28;20056;-43
2022/08/20 02:46:14;;;;;;;36.38;14.93;;;;;;;;;;5054086;28;20385;-43
2022/08/20 02:48:40;;;;;;;29.35;15.02;;;;;;;;;;5053832;28;20056;-43
2022/08/20 02:51:07;;;;;;;27.25;15.10;;;;;;;;;;5053883;28;20048;-45
2022/08/20 02:53:35;;;;;;;41.55;18.30;;;;;;;;;;5035936;28;20111;-45
2022/08/20 02:56:01;;;;;;;33.80;14.95;;;;;;;;;;5053729;28;20017;-43
2022/08/20 02:58:26;;;;;;;32.15;13.88;;;;;;;;;;5053927;28;20362;-42
2022/08/20 03:00:52;;;;;;;27.08;15.52;;;;;;;;;;5053688;28;20489;-40
2022/08/20 03:03:21;;;;;;;24.48;14.75;;;;;;;;;;5053864;28;20055;-40
2022/08/20 03:05:48;;;;;;;25.77;15.15;;;;;;;;;;5053737;28;20392;-40
2022/08/20 03:08:14;;;;;;;24.73;15.85;;;;;;;;;;5053728;28;20036;-44
2022/08/20 03:10:42;;;;;;;32.88;16.05;;;;;;;;;;5053507;28;20070;-43
2022/08/20 03:13:11;;;;;;;24.98;14.88;;;;;;;;;;5053411;28;20544;-40
2022/08/20 03:15:40;;;;;;;22.17;15.27;;;;;;;;;;5053379;28;20029;-40
2022/08/20 03:18:06;;;;;;;22.00;14.70;;;;;;;;;;5053303;28;20025;-40
2022/08/20 03:20:31;;;;;;;26.88;14.18;;;;;;;;;;5053304;28;20024;-41
2022/08/20 03:22:57;;;;;;;27.30;15.95;;;;;;;;;;5053172;28;20027;-43
2022/08/20 03:25:23;;;;;;;27.83;16.33;;;;;;;;;;5052837;28;20460;-43
2022/08/20 03:27:49;;;;;;;27.67;16.85;;;;;;;;;;5053367;28;20031;-43
2022/08/20 03:30:16;;;;;;;25.48;15.70;;;;;;;;;;5053106;28;20419;-45
2022/08/20 03:32:42;;;;;;;24.38;14.15;;;;;;;;;;5053326;28;20036;-42
2022/08/20 03:35:11;;;;;;;27.48;13.40;;;;;;;;;;5052995;28;20117;-40
2022/08/20 03:37:37;;;;;;;24.55;13.68;;;;;;;;;;5052909;28;20035;-43
2022/08/20 03:40:15;;;;;;;21.00;12.80;;;;;;;;;;5052866;28;20032;-44
2022/08/20 03:42:41;;;;;;;27.95;14.25;;;;;;;;;;5052726;28;20049;-46
2022/08/20 03:45:09;;;;;;;22.13;12.77;;;;;;;;;;5052751;28;20025;-44
2022/08/20 03:47:35;;;;;;;29.27;14.05;;;;;;;;;;5052705;28;20021;-42
2022/08/20 03:50:01;;;;;;;25.50;13.02;;;;;;;;;;5052737;28;20172;-40
2022/08/20 03:52:28;;;;;;;23.58;13.25;;;;;;;;;;5052679;28;20040;-40
2022/08/20 03:54:54;;;;;;;24.33;12.68;;;;;;;;;;5052671;28;20029;-43
2022/08/20 03:57:19;;;;;;;22.23;12.73;;;;;;;;;;5052915;28;20104;-43
2022/08/20 03:59:45;;;;;;;24.77;12.07;;;;;;;;;;5052590;28;20534;-48
2022/08/20 04:02:11;;;;;;;21.38;12.52;;;;;;;;;;5052591;28;20021;-45
2022/08/20 04:04:39;;;;;;;26.55;12.43;;;;;;;;;;5052474;28;20108;-47
2022/08/20 04:07:27;;;;;;;23.58;11.05;;;;;;;;;;5052418;28;20515;-45
2022/08/20 04:09:54;;;;;;;22.63;12.25;;;;;;;;;;5052518;28;20028;-48
2022/08/20 04:12:22;;;;;;;22.77;12.82;;;;;;;;;;5052606;28;20025;-45
2022/08/20 04:14:48;;;;;;;24.88;11.65;;;;;;;;;;5052360;28;20504;-44
2022/08/20 04:17:15;;;;;;;24.85;13.18;;;;;;;;;;5052442;28;20027;-43
2022/08/20 04:19:40;;;;;;;25.25;12.35;;;;;;;;;;5052616;28;20405;-48
2022/08/20 04:22:06;;;;;;;23.92;12.82;;;;;;;;;;5052628;28;20041;-46
2022/08/20 04:24:33;;;;;;;30.27;12.68;;;;;;;;;;5034727;28;20112;-44
2022/08/20 04:27:01;;;;;;;27.17;13.13;;;;;;;;;;5052205;28;20029;-43
2022/08/20 04:29:28;;;;;;;24.23;12.63;;;;;;;;;;5052493;28;20025;-44
2022/08/20 04:31:54;;;;;;;22.35;12.45;;;;;;;;;;5052445;28;20117;-43
2022/08/20 04:34:20;;;;;;;29.05;12.68;;;;;;;;;;5052210;28;20029;-43
2022/08/20 04:36:46;;;;;;;25.65;12.27;;;;;;;;;;5052898;28;20043;-46
2022/08/20 04:39:15;;;;;;;29.85;11.82;;;;;;;;;;5056323;28;20025;-44
2022/08/20 04:41:41;;;;;;;25.50;11.35;;;;;;;;;;5056012;28;20509;-43
2022/08/20 04:44:07;;;;;;;27.80;11.50;;;;;;;;;;5056433;28;20115;-45
2022/08/20 04:46:33;;;;;;;23.55;11.30;;;;;;;;;;5056049;28;20050;-46
2022/08/20 04:49:02;;;;;;;24.17;10.90;;;;;;;;;;5056366;28;20041;-44
2022/08/20 04:51:29;;;;;;;22.50;10.93;;;;;;;;;;5056118;28;20104;-45
2022/08/20 04:53:56;;;;;;;24.88;10.52;;;;;;;;;;5055991;28;20036;-44
2022/08/20 04:56:26;;;;;;;18.65;9.07;;;;;;;;;;5056026;28;20104;-44
2022/08/20 04:58:54;;;;;;;21.60;8.77;;;;;;;;;;5055941;28;20025;-43
2022/08/20 05:01:22;;;;;;;22.95;8.10;;;;;;;;;;5056001;28;20397;-43
2022/08/20 05:03:48;;;;;;;19.50;8.15;;;;;;;;;;5055767;28;20032;-43
2022/08/20 05:06:16;;;;;;;19.52;8.30;;;;;;;;;;5055917;28;20039;-46
2022/08/20 05:08:43;;;;;;;22.70;7.85;;;;;;;;;;5055717;28;20536;-45
2022/08/20 05:11:09;;;;;;;19.48;7.53;;;;;;;;;;5055693;28;20078;-46
2022/08/20 05:13:35;;;;;;;16.15;6.82;;;;;;;;;;5055872;28;20052;-50
2022/08/20 05:16:03;;;;;;;19.42;6.95;;;;;;;;;;5055805;28;20511;-49
2022/08/20 05:18:32;;;;;;;17.38;6.65;;;;;;;;;;5037660;28;20029;-46
2022/08/20 05:21:04;;;;;;;19.30;6.28;;;;;;;;;;5055577;28;20143;-42
2022/08/20 05:23:30;;;;;;;14.90;6.40;;;;;;;;;;5055486;28;20037;-48
2022/08/20 05:25:56;;;;;;;19.20;6.07;;;;;;;;;;5055680;28;20029;-48
2022/08/20 05:28:25;;;;;;;19.15;6.28;;;;;;;;;;5055679;28;20485;-46
2022/08/20 05:30:52;;;;;;;16.58;5.93;;;;;;;;;;5055410;28;20044;-45
2022/08/20 05:33:19;;;;;;;21.60;5.80;;;;;;;;;;5055402;28;20056;-47
2022/08/20 05:35:47;;;;;;;15.65;6.43;;;;;;;;;;5055299;28;20025;-44
2022/08/20 05:38:17;;;;;;;18.83;6.20;;;;;;;;;;5055531;28;20391;-44
2022/08/20 05:40:43;;;;;;;18.15;6.88;;;;;;;;;;5055518;28;20033;-44
2022/08/20 05:43:10;;;;;;;15.60;6.45;;;;;;;;;;5054922;28;20064;-47
2022/08/20 05:45:38;;;;;;;17.02;7.43;;;;;;;;;;5055267;28;20041;-43
2022/08/20 05:48:10;;;;;;;15.02;6.60;;;;;;;;;;5054957;28;20040;-43
2022/08/20 05:50:41;;;;;;;17.58;6.20;;;;;;;;;;5055022;28;20029;-46
2022/08/20 05:53:07;;;;;;;19.85;6.57;;;;;;;;;;5054925;28;20021;-44
2022/08/20 05:55:32;;;;;;;17.10;6.28;;;;;;;;;;5054872;28;20029;-44
2022/08/20 05:58:01;;;;;;;22.48;6.20;;;;;;;;;;5036129;28;20037;-48
2022/08/20 06:00:28;;;;;;;10.38;5.55;;;;;;;;;;5054821;28;20021;-44
2022/08/20 06:05:38;;;;;;;20.20;7.72;;;;;;;;;;5054586;28;20110;-43
2022/08/20 06:08:08;;;;;;;11.73;5.75;;;;;;;;;;5054585;28;20017;-43
2022/08/20 06:10:35;;;;;;;15.70;5.25;;;;;;;;;;5054535;28;20028;-46
2022/08/20 06:13:01;;;;;;;16.48;5.22;;;;;;;;;;5054530;28;20075;-46
2022/08/20 06:15:29;;;;;;;15.38;5.57;;;;;;;;;;5054712;28;20082;-44
2022/08/20 06:17:55;;;;;;;15.07;6.30;;;;;;;;;;5054669;28;20021;-44
2022/08/20 06:20:21;;;;;;;22.90;6.63;;;;;;;;;;5054353;28;20507;-42
2022/08/20 06:22:47;;;;;;;18.48;5.57;;;;;;;;;;5053766;28;20029;-48
2022/08/20 06:25:12;;;;;;;11.63;4.40;;;;;;;;;;5052415;28;20039;-45
2022/08/20 06:27:42;;;;;;;13.05;4.65;;;;;;;;;;5053244;28;20108;-43
2022/08/20 06:30:10;;;;;;;17.90;5.72;;;;;;;;;;5054273;28;20029;-46
2022/08/20 06:32:35;;;;;;;20.70;5.47;;;;;;;;;;5036248;28;20112;-41
2022/08/20 06:35:05;;;;;;;20.02;5.40;;;;;;;;;;5054128;28;20112;-48
2022/08/20 06:37:32;;;;;;;20.95;6.18;;;;;;;;;;5054104;28;20025;-44
2022/08/20 06:40:19;;;;;;;24.48;6.50;;;;;;;;;;5035377;28;20075;-41
2022/08/20 06:42:45;;;;;;;20.55;6.50;;;;;;;;;;5052135;28;20056;-44
2022/08/20 06:45:12;;;;;;;13.63;5.35;;;;;;;;;;5035268;28;20025;-42
2022/08/20 06:47:39;;;;;;;15.32;5.97;;;;;;;;;;5053696;28;20107;-42
2022/08/20 06:50:08;;;;;;;16.92;5.80;;;;;;;;;;5053323;28;20432;-42
2022/08/20 06:52:34;;;;;;;17.95;5.68;;;;;;;;;;5053724;28;20039;-42
2022/08/20 06:55:00;;;;;;;16.90;6.57;;;;;;;;;;5053161;28;20021;-43
2022/08/20 06:57:26;;;;;;;18.90;6.47;;;;;;;;;;5053180;28;20025;-42
2022/08/20 06:59:53;;;;;;;19.73;5.72;;;;;;;;;;5052234;28;20416;-45
2022/08/20 07:02:19;;;;;;;14.65;5.65;;;;;;;;;;5050998;28;20366;-43
2022/08/20 07:04:44;;;;;;;10.50;5.05;;;;;;;;;;5048514;28;20150;-44
2022/08/20 07:07:18;;;;;;;19.63;6.10;;;;;;;;;;5052662;28;20024;-42
2022/08/20 07:09:45;;;;;;;13.93;5.15;;;;;;;;;;5051567;28;20111;-44
2022/08/20 07:12:12;;;;;;;14.80;5.55;;;;;;;;;;5050932;28;20017;-43
2022/08/20 07:14:39;;;;;;;15.57;6.13;;;;;;;;;;5050244;28;20503;-43
2022/08/20 07:17:05;;;;;;;20.35;5.95;;;;;;;;;;5050461;28;20025;-51
2022/08/20 07:19:32;;;;;;;13.43;6.00;;;;;;;;;;5050313;28;20540;-48
2022/08/20 07:21:58;;;;;;;15.48;6.80;;;;;;;;;;5032482;28;20045;-47
2022/08/20 07:24:23;;;;;;;17.73;9.85;;;;;;;;;;5032643;28;20025;-48
2022/08/20 07:26:50;;;;;;;16.92;6.40;;;;;;;;;;5049998;28;20033;-48
2022/08/20 07:29:17;;;;;;;17.00;7.70;;;;;;;;;;5051296;28;20125;-49
2022/08/20 07:34:27;;;;;;;18.17;5.85;;;;;;;;;;5051432;28;20460;-52
2022/08/20 07:36:52;;;;;;;14.43;6.32;;;;;;;;;;5051488;28;20079;-56
2022/08/20 07:39:20;;;;;;;15.15;6.60;;;;;;;;;;5033559;28;20056;-49
2022/08/20 07:42:01;;;;;;;18.85;7.07;;;;;;;;;;5050779;28;20124;-50
2022/08/20 07:44:27;;;;;;;15.90;5.47;;;;;;;;;;5051484;28;20037;-53
2022/08/20 07:46:53;;;;;;;14.55;5.65;;;;;;;;;;5032971;28;20489;-52
2022/08/20 07:49:18;;;;;;;15.25;5.95;;;;;;;;;;5051075;28;20044;-52
2022/08/20 07:51:44;;;;;;;15.48;6.13;;;;;;;;;;5051174;28;20110;-51
2022/08/20 07:54:09;;;;;;;16.83;5.25;;;;;;;;;;5051058;28;20159;-53
2022/08/20 07:56:35;;;;;;;10.52;4.80;;;;;;;;;;5050989;28;20150;-53
2022/08/20 07:59:01;;;;;;;12.52;5.68;;;;;;;;;;5051091;28;20056;-48
2022/08/20 08:01:29;;;;;;;10.15;3.72;;;;;;;;;;5051149;28;20175;-52
2022/08/20 08:03:56;;;;;;;8.23;3.80;;;;;;;;;;5051001;28;20037;-50
2022/08/20 08:06:23;;;;;;;9.20;4.25;;;;;;;;;;5050852;28;20562;-50
2022/08/20 08:08:49;;;;;;;15.13;5.20;;;;;;;;;;5050905;28;20115;-57
2022/08/20 08:11:15;;;;;;;12.02;5.22;;;;;;;;;;5050355;28;20067;-52
2022/08/20 08:13:42;;;;;;;10.55;6.10;;;;;;;;;;5050686;28;20057;-48
2022/08/20 08:16:09;;;;;;;11.82;4.90;;;;;;;;;;5051035;28;20380;-52
2022/08/20 08:18:57;;;;;;;11.60;5.70;;;;;;;;;;5050788;28;20519;-53
2022/08/20 08:21:25;;;;;;;13.55;5.68;;;;;;;;;;5050588;28;20146;-51
2022/08/20 08:23:52;;;;;;;15.32;5.38;;;;;;;;;;5032649;28;20033;-53
2022/08/20 08:26:18;;;;;;;10.45;4.38;;;;;;;;;;5050788;28;20396;-54
2022/08/20 08:28:43;;;;;;;12.15;4.70;;;;;;;;;;5050521;28;20120;-53
2022/08/20 08:31:10;;;;;;;15.70;4.78;;;;;;;;;;5050404;28;20056;-54
2022/08/20 08:33:36;;;;;;;11.98;4.97;;;;;;;;;;5050391;28;20033;-52
2022/08/20 08:36:08;;;;;;;14.13;5.50;;;;;;;;;;5050443;28;20146;-51
2022/08/20 08:38:35;;;;;;;13.30;4.90;;;;;;;;;;5050666;28;20037;-53
2022/08/20 08:41:14;;;;;;;16.05;4.90;;;;;;;;;;5050356;28;20029;-55
2022/08/20 08:43:40;;;;;;;12.10;4.57;;;;;;;;;;5050216;28;20084;-55
2022/08/20 08:46:10;;;;;;;10.93;4.30;;;;;;;;;;5050141;28;20102;-53
2022/08/20 08:48:43;;;;;;;10.65;4.53;;;;;;;;;;5050493;28;20485;-51
2022/08/20 08:51:11;;;;;;;8.25;4.15;;;;;;;;;;5050412;28;20021;-58
2022/08/20 08:53:45;;;;;;;12.13;4.38;;;;;;;;;;5050681;28;20608;-60
2022/08/20 08:56:13;;;;;;;11.00;4.38;;;;;;;;;;5050688;28;20107;-59
2022/08/20 08:58:39;;;;;;;11.20;4.82;;;;;;;;;;5050636;28;20068;-58
2022/08/20 09:01:16;;;;;;;10.77;4.03;;;;;;;;;;5050575;28;20169;-60
2022/08/20 09:03:45;;;;;;;10.38;3.97;;;;;;;;;;5050566;28;20017;-60
2022/08/20 09:06:17;;;;;;;10.43;4.10;;;;;;;;;;5050482;28;20052;-60
2022/08/20 09:08:56;;;;;;;15.15;5.00;;;;;;;;;;5050329;28;20564;-59
2022/08/20 09:11:24;;;;;;;11.35;4.82;;;;;;;;;;5050230;28;20029;-58
2022/08/20 09:13:53;;;;;;;17.27;5.75;;;;;;;;;;5050043;28;20477;-58
2022/08/20 09:16:18;;;;;;;14.50;5.38;;;;;;;;;;5050093;28;20061;-59
2022/08/20 09:18:44;;;;;;;12.07;4.75;;;;;;;;;;5049492;28;20056;-60
2022/08/20 09:21:10;;;;;;;13.70;4.90;;;;;;;;;;5049739;28;20021;-58
2022/08/20 09:23:36;;;;;;;11.02;4.80;;;;;;;;;;5034451;28;20074;-48
2022/08/20 09:26:02;;;;;;;10.68;4.90;;;;;;;;;;5054164;28;20036;-46
2022/08/20 09:28:30;;;;;;;13.25;4.97;;;;;;;;;;5053824;28;20534;-51
2022/08/20 09:30:55;;;;;;;15.55;4.60;;;;;;;;;;5053909;28;20025;-48
2022/08/20 09:33:21;;;;;;;12.45;5.68;;;;;;;;;;5035773;28;20029;-49
2022/08/20 09:35:46;;;;;;;12.25;4.60;;;;;;;;;;5053772;28;20025;-59
2022/08/20 09:38:12;;;;;;;11.95;4.65;;;;;;;;;;5053700;28;20021;-60
2022/08/20 09:40:38;;;;;;;11.10;4.63;;;;;;;;;;5053885;28;20043;-56
2022/08/20 09:43:07;;;;;;;11.18;4.80;;;;;;;;;;5053411;28;20413;-55
2022/08/20 09:45:34;;;;;;;11.85;3.75;;;;;;;;;;5053477;28;20056;-60
2022/08/20 09:48:00;;;;;;;11.48;4.03;;;;;;;;;;5053749;28;20045;-59
2022/08/20 09:50:27;;;;;;;11.50;4.15;;;;;;;;;;5053439;28;20068;-57
2022/08/20 09:52:54;;;;;;;11.05;3.97;;;;;;;;;;5053520;28;20481;-60
2022/08/20 09:55:26;;;;;;;9.57;3.28;;;;;;;;;;5053236;28;20115;-58
2022/08/20 09:57:52;;;;;;;10.63;3.88;;;;;;;;;;5053450;28;20024;-59
2022/08/20 10:00:18;;;;;;;13.15;5.30;;;;;;;;;;5053110;28;20463;-60
2022/08/20 10:02:44;;;;;;;11.65;4.68;;;;;;;;;;5053169;28;20028;-60
2022/08/20 10:05:10;;;;;;;10.85;4.15;;;;;;;;;;5052619;28;20071;-60
2022/08/20 10:07:37;;;;;;;10.63;4.38;;;;;;;;;;5052595;28;20028;-60
2022/08/20 10:10:03;;;;;;;17.85;4.47;;;;;;;;;;5052679;28;20029;-59
2022/08/20 10:12:28;;;;;;;10.45;3.63;;;;;;;;;;5053292;28;20061;-56
2022/08/20 10:14:54;;;;;;;10.02;3.75;;;;;;;;;;5053203;28;20441;-55
2022/08/20 10:17:20;;;;;;;12.75;4.15;;;;;;;;;;5053041;28;20362;-52
2022/08/20 10:19:46;;;;;;;15.88;4.32;;;;;;;;;;5052947;28;20033;-49
2022/08/20 10:22:12;;;;;;;15.20;4.35;;;;;;;;;;5052830;28;20033;-57
2022/08/20 10:24:37;;;;;;;11.20;4.25;;;;;;;;;;5052941;28;20025;-53
2022/08/20 10:27:03;;;;;;;13.57;4.40;;;;;;;;;;5052658;28;20479;-52
2022/08/20 10:29:30;;;;;;;9.82;4.88;;;;;;;;;;5052640;28;20057;-56
2022/08/20 10:31:59;;;;;;;11.85;4.65;;;;;;;;;;5052498;28;20033;-52
2022/08/20 10:34:24;;;;;;;12.90;4.20;;;;;;;;;;5033983;28;20037;-55
2022/08/20 10:36:50;;;;;;;10.90;4.68;;;;;;;;;;5052306;28;20027;-55
2022/08/20 10:39:16;;;;;;;16.73;4.95;;;;;;;;;;5051978;28;20469;-54
2022/08/20 10:41:41;;;;;;;13.88;5.03;;;;;;;;;;5052077;28;20017;-58
2022/08/20 10:44:07;;;;;;;15.10;4.40;;;;;;;;;;5051716;28;20323;-57
2022/08/20 10:46:33;;;;;;;10.35;4.43;;;;;;;;;;5051602;28;20082;-58
2022/08/20 10:48:59;;;;;;;11.05;4.95;;;;;;;;;;5051356;28;20106;-58
2022/08/20 10:51:24;;;;;;;10.30;4.03;;;;;;;;;;5050944;28;20480;-58
2022/08/20 10:53:50;;;;;;;15.00;5.10;;;;;;;;;;5051108;28;20029;-51
2022/08/20 10:56:15;;;;;;;10.65;4.45;;;;;;;;;;5050879;28;20028;-53
2022/08/20 10:58:41;;;;;;;10.57;4.93;;;;;;;;;;5050930;28;20027;-53
2022/08/20 11:01:06;;;;;;;13.63;4.72;;;;;;;;;;5051262;28;20389;-59
2022/08/20 11:03:32;;;;;;;13.57;4.32;;;;;;;;;;5051880;28;20100;-59
2022/08/20 11:05:58;;;;;;;9.80;4.57;;;;;;;;;;5051857;28;20044;-59
2022/08/20 11:08:23;;;;;;;8.85;3.97;;;;;;;;;;5052042;28;20029;-61
2022/08/20 11:10:49;;;;;;;10.82;4.40;;;;;;;;;;5051824;28;20032;-60
2022/08/20 11:13:14;;;;;;;11.57;5.00;;;;;;;;;;5051764;28;20119;-57
2022/08/20 11:15:42;;;;;;;9.55;4.78;;;;;;;;;;5051711;28;20146;-60
2022/08/20 11:18:08;;;;;;;12.23;4.53;;;;;;;;;;5051746;28;20045;-60
2022/08/20 11:20:35;;;;;;;12.63;4.32;;;;;;;;;;5051676;28;20029;-61
2022/08/20 11:23:01;;;;;;;7.38;3.45;;;;;;;;;;5051702;28;20029;-59
2022/08/20 11:25:28;;;;;;;10.30;3.50;;;;;;;;;;5033103;28;20075;-56
2022/08/20 11:27:55;;;;;;;13.75;3.78;;;;;;;;;;5049011;28;20043;-55
2022/08/20 11:30:22;;;;;;;7.55;3.78;;;;;;;;;;5051051;28;20033;-59
2022/08/20 11:32:47;;;;;;;10.77;3.13;;;;;;;;;;5050934;28;20032;-53
2022/08/20 11:35:13;;;;;;;9.23;3.63;;;;;;;;;;5051201;28;20083;-57
2022/08/20 11:37:39;;;;;;;9.23;3.97;;;;;;;;;;5051659;28;20025;-59
2022/08/20 11:40:07;;;;;;;15.77;3.22;;;;;;;;;;5051312;28;20052;-59
2022/08/20 11:42:33;;;;;;;8.27;3.53;;;;;;;;;;5051204;28;20438;-58
2022/08/20 11:44:59;;;;;;;10.18;3.40;;;;;;;;;;5050821;28;20061;-58
2022/08/20 11:47:28;;;;;;;9.13;3.70;;;;;;;;;;5051272;28;20059;-60
2022/08/20 11:50:03;;;;;;;12.38;3.58;;;;;;;;;;5051396;28;20086;-58
2022/08/20 11:52:29;;;;;;;9.40;3.53;;;;;;;;;;5051525;28;20415;-59
2022/08/20 11:54:55;;;;;;;7.45;3.38;;;;;;;;;;5033093;28;20033;-58
2022/08/20 11:57:27;;;;;;;10.40;3.83;;;;;;;;;;5051056;28;20029;-61
2022/08/20 11:59:54;;;;;;;9.60;3.10;;;;;;;;;;5050994;28;20025;-58
2022/08/20 12:02:20;;;;;;;10.27;3.33;;;;;;;;;;5051247;28;20381;-58
2022/08/20 12:04:47;;;;;;;7.90;3.20;;;;;;;;;;5050577;28;20036;-51
2022/08/20 12:07:16;;;;;;;9.85;3.58;;;;;;;;;;5051062;28;20440;-49
2022/08/20 12:09:43;;;;;;;7.82;3.60;;;;;;;;;;5051008;28;20028;-59
2022/08/20 12:12:09;;;;;;;9.27;3.10;;;;;;;;;;5050837;28;20029;-60
2022/08/20 12:14:35;;;;;;;7.43;3.25;;;;;;;;;;5051075;28;20027;-61
2022/08/20 12:17:18;;;;;;;14.38;4.20;;;;;;;;;;5050628;28;20544;-59
2022/08/20 12:19:44;;;;;;;10.88;3.15;;;;;;;;;;5050769;28;20124;-58
2022/08/20 12:22:10;;;;;;;11.10;4.03;;;;;;;;;;5050827;28;20093;-56
2022/08/20 12:24:36;;;;;;;9.98;3.80;;;;;;;;;;5050856;28;20025;-59
2022/08/20 12:27:14;;;;;;;9.13;3.97;;;;;;;;;;5050526;28;20039;-58
2022/08/20 12:29:41;;;;;;;11.23;3.80;;;;;;;;;;5048130;28;20412;-58
2022/08/20 12:32:07;;;;;;;11.52;3.55;;;;;;;;;;5050808;28;20028;-54
2022/08/20 12:34:34;;;;;;;10.73;3.90;;;;;;;;;;5050578;28;20035;-56
2022/08/20 12:37:14;;;;;;;10.80;3.78;;;;;;;;;;5050760;28;20501;-57
2022/08/20 12:39:42;;;;;;;8.95;3.50;;;;;;;;;;5050529;28;20461;-58
2022/08/20 12:42:09;;;;;;;10.35;3.80;;;;;;;;;;5050454;28;20120;-58
2022/08/20 12:44:36;;;;;;;8.00;3.55;;;;;;;;;;5050457;28;20032;-59
2022/08/20 12:47:23;;;;;;;11.65;4.45;;;;;;;;;;5050617;28;20075;-58
2022/08/20 12:49:52;;;;;;;11.10;3.75;;;;;;;;;;5050183;28;20037;-59
2022/08/20 12:52:20;;;;;;;15.60;3.90;;;;;;;;;;5050698;28;20033;-60
2022/08/20 12:54:45;;;;;;;9.85;3.67;;;;;;;;;;5050601;28;20029;-59
2022/08/20 12:57:29;;;;;;;10.45;3.78;;;;;;;;;;5050346;28;20075;-59
2022/08/20 12:59:57;;;;;;;12.95;3.55;;;;;;;;;;5054368;28;20071;-58
2022/08/20 13:02:23;;;;;;;7.13;3.70;;;;;;;;;;5054658;28;20353;-59
2022/08/20 13:04:49;;;;;;;8.60;4.45;;;;;;;;;;5054124;28;20028;-59
2022/08/20 13:07:15;;;;;;;9.95;4.25;;;;;;;;;;5053720;28;20029;-60
2022/08/20 13:09:41;;;;;;;11.23;4.10;;;;;;;;;;5053606;28;20021;-59
2022/08/20 13:12:07;;;;;;;12.38;3.92;;;;;;;;;;5053561;28;20020;-57
2022/08/20 13:14:33;;;;;;;7.97;3.90;;;;;;;;;;5054299;28;20389;-57
2022/08/20 13:17:00;;;;;;;12.25;4.00;;;;;;;;;;5036486;28;20029;-59
2022/08/20 13:19:27;;;;;;;8.63;3.80;;;;;;;;;;5054045;28;20033;-58
2022/08/20 13:21:53;;;;;;;11.07;4.43;;;;;;;;;;5053800;28;20029;-58
2022/08/20 13:24:19;;;;;;;13.93;4.20;;;;;;;;;;5053895;28;20033;-59
2022/08/20 13:26:44;;;;;;;8.27;3.67;;;;;;;;;;5053633;28;20032;-54
2022/08/20 13:29:12;;;;;;;10.93;3.92;;;;;;;;;;5054063;28;20024;-56
2022/08/20 13:31:37;;;;;;;10.85;3.80;;;;;;;;;;5053606;28;20835;-48
2022/08/20 13:34:02;;;;;;;9.48;3.80;;;;;;;;;;5053563;28;20029;-47
2022/08/20 13:36:28;;;;;;;14.10;3.63;;;;;;;;;;5053720;28;20025;-50
2022/08/20 13:38:53;;;;;;;12.70;4.15;;;;;;;;;;5053571;28;20040;-53
2022/08/20 13:41:19;;;;;;;8.25;4.45;;;;;;;;;;5053480;28;20087;-56
2022/08/20 13:43:44;;;;;;;14.73;4.05;;;;;;;;;;5053306;28;20112;-59
2022/08/20 13:46:10;;;;;;;6.57;3.25;;;;;;;;;;5053398;28;20048;-56
2022/08/20 13:48:36;;;;;;;7.78;3.83;;;;;;;;;;5053731;28;20025;-58
2022/08/20 13:51:01;;;;;;;8.00;3.63;;;;;;;;;;5053625;28;20057;-53
2022/08/20 13:53:27;;;;;;;11.00;4.30;;;;;;;;;;5053565;28;20029;-57
2022/08/20 13:55:52;;;;;;;10.63;4.45;;;;;;;;;;5053410;28;20032;-59
2022/08/20 13:58:18;;;;;;;8.60;3.80;;;;;;;;;;5053116;28;20021;-57
2022/08/20 14:00:44;;;;;;;11.07;4.22;;;;;;;;;;5053198;28;20040;-57
2022/08/20 14:03:10;;;;;;;8.32;4.78;;;;;;;;;;5053496;28;20393;-57
2022/08/20 14:05:37;;;;;;;13.30;4.68;;;;;;;;;;5053064;28;20028;-45
2022/08/20 14:08:07;;;;;;;10.55;3.60;;;;;;;;;;5053350;28;20028;-45
2022/08/20 14:10:32;;;;;;;13.88;4.18;;;;;;;;;;5051799;28;20032;-48
2022/08/20 14:12:59;;;;;;;10.10;3.90;;;;;;;;;;5053184;28;20394;-45
2022/08/20 14:15:24;;;;;;;9.20;3.83;;;;;;;;;;5053142;28;20053;-47
2022/08/20 14:17:53;;;;;;;10.82;3.92;;;;;;;;;;5052916;28;20083;-47
2022/08/20 14:20:28;;;;;;;11.23;3.72;;;;;;;;;;5053018;28;20427;-51
2022/08/20 14:22:53;;;;;;;9.93;3.97;;;;;;;;;;5052905;28;20549;-46
2022/08/20 14:25:20;;;;;;;6.47;3.72;;;;;;;;;;5052600;28;20120;-50
2022/08/20 14:27:46;;;;;;;9.98;4.30;;;;;;;;;;5052824;28;20100;-46
2022/08/20 14:30:15;;;;;;;9.40;3.63;;;;;;;;;;5052852;28;20210;-49
2022/08/20 14:32:40;;;;;;;10.40;3.80;;;;;;;;;;5052808;28;20536;-57
2022/08/20 14:35:07;;;;;;;11.20;4.05;;;;;;;;;;5052635;28;20029;-46